Time,TemperatureF,DewpointF,PressureIn,WindDirection,WindDirectionDegrees,WindSpeedMPH,WindSpeedGustMPH,Humidity,HourlyPrecipIn,Conditions,Clouds,dailyrainin,SoftwareType,DateUTC
2013-06-01 00:00:00,56.3,46.9,30.50,South,178,1.0,4.0,71,0.00,,,0.00,meteohub,2013-06-01 07:00:00,
2013-06-01 00:05:00,56.5,47.5,30.49,West,268,2.0,4.0,72,0.00,,,0.00,meteohub,2013-06-01 07:05:00,
2013-06-01 00:10:00,56.8,47.5,30.50,WSW,244,3.0,6.0,71,0.00,,,0.00,meteohub,2013-06-01 07:10:00,
2013-06-01 00:15:00,57.0,47.3,30.50,SW,217,5.0,6.0,70,0.00,,,0.00,meteohub,2013-06-01 07:15:00,
2013-06-01 00:20:00,57.4,47.3,30.50,SW,233,8.0,8.0,69,0.00,,,0.00,meteohub,2013-06-01 07:20:00,
2013-06-01 00:25:00,57.6,47.5,30.49,SW,223,2.0,8.0,69,0.00,,,0.00,meteohub,2013-06-01 07:25:00,
2013-06-01 00:30:00,57.6,47.5,30.49,SW,227,2.0,9.0,69,0.00,,,0.00,meteohub,2013-06-01 07:30:00,
2013-06-01 00:35:00,57.4,47.3,30.49,NW,304,4.0,9.0,69,0.00,,,0.00,meteohub,2013-06-01 07:35:00,
2013-06-01 00:40:00,57.2,47.5,30.49,WNW,283,1.0,6.0,70,0.00,,,0.00,meteohub,2013-06-01 07:40:00,
2013-06-01 00:45:00,57.0,47.3,30.49,West,277,2.0,5.0,70,0.00,,,0.00,meteohub,2013-06-01 07:45:00,
2013-06-01 00:51:00,56.7,47.3,30.49,East,101,1.0,5.0,71,0.00,,,0.00,meteohub,2013-06-01 07:51:00,
2013-06-01 00:56:00,56.1,47.7,30.50,WSW,238,1.0,3.0,73,0.00,,,0.00,meteohub,2013-06-01 07:56:00,
2013-06-01 01:01:00,56.1,47.7,30.50,SSW,213,7.0,7.0,73,0.00,,,0.00,meteohub,2013-06-01 08:01:00,
2013-06-01 01:06:00,56.3,47.8,30.50,SSW,196,0.0,8.0,73,0.00,,,0.00,meteohub,2013-06-01 08:06:00,
2013-06-01 01:11:00,55.9,47.8,30.49,SW,222,2.0,8.0,74,0.00,,,0.00,meteohub,2013-06-01 08:11:00,
2013-06-01 01:16:00,55.6,47.8,30.49,WSW,250,5.0,8.0,75,0.00,,,0.00,meteohub,2013-06-01 08:16:00,
2013-06-01 01:21:00,55.0,48.0,30.49,SW,226,6.0,8.0,77,0.00,,,0.00,meteohub,2013-06-01 08:21:00,
2013-06-01 01:26:00,55.0,48.0,30.50,SW,233,5.0,8.0,77,0.00,,,0.00,meteohub,2013-06-01 08:26:00,
2013-06-01 01:31:00,55.0,48.0,30.50,WSW,241,3.0,9.0,77,0.00,,,0.00,meteohub,2013-06-01 08:31:00,
2013-06-01 01:36:00,54.7,48.0,30.50,SSW,207,3.0,11.0,78,0.00,,,0.00,meteohub,2013-06-01 08:36:00,
2013-06-01 01:41:00,54.5,47.8,30.50,SW,227,2.0,11.0,78,0.00,,,0.00,meteohub,2013-06-01 08:41:00,
2013-06-01 01:46:00,54.3,48.0,30.50,West,267,0.0,11.0,79,0.00,,,0.00,meteohub,2013-06-01 08:46:00,
2013-06-01 01:51:00,54.0,48.0,30.50,SSW,213,2.0,5.0,80,0.00,,,0.00,meteohub,2013-06-01 08:51:00,
2013-06-01 01:56:00,53.6,47.8,30.50,WSW,242,4.0,8.0,81,0.00,,,0.00,meteohub,2013-06-01 08:56:00,
2013-06-01 02:02:00,53.2,47.8,30.50,SW,232,0.0,8.0,82,0.00,,,0.00,meteohub,2013-06-01 09:02:00,
2013-06-01 02:07:00,53.1,47.7,30.50,SSW,211,0.0,8.0,82,0.00,,,0.00,meteohub,2013-06-01 09:07:00,
2013-06-01 02:12:00,52.9,47.5,30.50,SW,235,0.0,5.0,82,0.00,,,0.00,meteohub,2013-06-01 09:12:00,
2013-06-01 02:17:00,52.3,46.9,30.50,SW,235,0.0,3.0,82,0.00,,,0.00,meteohub,2013-06-01 09:17:00,
2013-06-01 02:22:00,52.3,47.3,30.51,West,267,4.0,4.0,83,0.00,,,0.00,meteohub,2013-06-01 09:22:00,
2013-06-01 02:27:00,52.7,47.7,30.51,WNW,294,1.0,6.0,83,0.00,,,0.00,meteohub,2013-06-01 09:27:00,
2013-06-01 02:32:00,52.5,47.5,30.51,WNW,283,1.0,6.0,83,0.00,,,0.00,meteohub,2013-06-01 09:32:00,
2013-06-01 02:37:00,52.3,47.7,30.50,NW,315,1.0,7.0,84,0.00,,,0.00,meteohub,2013-06-01 09:37:00,
2013-06-01 02:42:00,52.2,47.5,30.50,West,272,2.0,7.0,84,0.00,,,0.00,meteohub,2013-06-01 09:42:00,
2013-06-01 02:47:00,52.0,47.3,30.50,NW,309,0.0,6.0,84,0.00,,,0.00,meteohub,2013-06-01 09:47:00,
2013-06-01 02:52:00,52.0,47.7,30.50,NW,311,3.0,6.0,85,0.00,,,0.00,meteohub,2013-06-01 09:52:00,
2013-06-01 02:57:00,52.0,47.7,30.50,West,267,4.0,6.0,85,0.00,,,0.00,meteohub,2013-06-01 09:57:00,
2013-06-01 03:02:00,52.0,47.3,30.50,West,268,1.0,6.0,84,0.00,,,0.00,meteohub,2013-06-01 10:02:00,
2013-06-01 03:07:00,51.8,47.1,30.50,SW,226,2.0,5.0,84,0.00,,,0.00,meteohub,2013-06-01 10:07:00,
2013-06-01 03:12:00,51.6,47.3,30.50,West,265,2.0,5.0,85,0.00,,,0.00,meteohub,2013-06-01 10:12:00,
2013-06-01 03:17:00,51.4,46.8,30.50,SSE,159,1.0,5.0,84,0.00,,,0.00,meteohub,2013-06-01 10:17:00,
2013-06-01 03:22:00,51.1,46.4,30.50,South,180,0.0,5.0,84,0.00,,,0.00,meteohub,2013-06-01 10:22:00,
2013-06-01 03:27:00,50.5,46.2,30.50,ESE,107,0.0,4.0,85,0.00,,,0.00,meteohub,2013-06-01 10:27:00,
2013-06-01 03:32:00,50.2,45.9,30.50,ESE,105,1.0,2.0,85,0.00,,,0.00,meteohub,2013-06-01 10:32:00,
2013-06-01 03:37:00,49.8,45.9,30.50,SE,131,0.0,2.0,86,0.00,,,0.00,meteohub,2013-06-01 10:37:00,
2013-06-01 03:42:00,49.6,45.7,30.50,South,187,0.0,2.0,86,0.00,,,0.00,meteohub,2013-06-01 10:42:00,
2013-06-01 03:47:00,49.5,45.5,30.50,SSW,209,1.0,2.0,86,0.00,,,0.00,meteohub,2013-06-01 10:47:00,
2013-06-01 03:52:00,49.5,45.5,30.50,SW,223,1.0,3.0,86,0.00,,,0.00,meteohub,2013-06-01 10:52:00,
2013-06-01 03:57:00,49.6,45.7,30.50,WSW,245,0.0,6.0,86,0.00,,,0.00,meteohub,2013-06-01 10:57:00,
2013-06-01 04:02:00,49.8,45.9,30.50,SE,133,1.0,6.0,86,0.00,,,0.00,meteohub,2013-06-01 11:02:00,
2013-06-01 04:07:00,49.5,45.5,30.50,ESE,105,1.0,4.0,86,0.00,,,0.00,meteohub,2013-06-01 11:07:00,
2013-06-01 04:12:00,48.7,44.4,30.50,SE,138,0.0,4.0,85,0.00,,,0.00,meteohub,2013-06-01 11:12:00,
2013-06-01 04:17:00,48.2,44.2,30.50,SSE,167,2.0,3.0,86,0.00,,,0.00,meteohub,2013-06-01 11:17:00,
2013-06-01 04:23:00,47.7,43.7,30.50,SSE,153,2.0,3.0,86,0.00,,,0.00,meteohub,2013-06-01 11:23:00,
2013-06-01 04:28:00,47.5,43.5,30.49,SE,133,1.0,3.0,86,0.00,,,0.00,meteohub,2013-06-01 11:28:00,
2013-06-01 04:33:00,47.3,43.3,30.49,SE,140,3.0,4.0,86,0.00,,,0.00,meteohub,2013-06-01 11:33:00,
2013-06-01 04:38:00,47.5,43.5,30.49,SW,223,2.0,4.0,86,0.00,,,0.00,meteohub,2013-06-01 11:38:00,
2013-06-01 04:43:00,47.7,43.7,30.49,SW,226,3.0,4.0,86,0.00,,,0.00,meteohub,2013-06-01 11:43:00,
2013-06-01 04:48:00,48.0,44.1,30.49,SW,219,4.0,5.0,86,0.00,,,0.00,meteohub,2013-06-01 11:48:00,
2013-06-01 04:53:00,48.6,44.6,30.49,WSW,257,3.0,5.0,86,0.00,,,0.00,meteohub,2013-06-01 11:53:00,
2013-06-01 04:58:00,49.3,45.3,30.49,WSW,252,0.0,7.0,86,0.00,,,0.00,meteohub,2013-06-01 11:58:00,
2013-06-01 05:03:00,49.5,45.5,30.49,NE,44,0.0,7.0,86,0.00,,,0.00,meteohub,2013-06-01 12:03:00,
2013-06-01 05:08:00,48.9,45.0,30.48,ESE,108,0.0,7.0,86,0.00,,,0.00,meteohub,2013-06-01 12:08:00,
2013-06-01 05:13:00,48.6,44.6,30.48,ENE,73,0.0,4.0,86,0.00,,,0.00,meteohub,2013-06-01 12:13:00,
2013-06-01 05:18:00,48.2,44.2,30.48,NE,53,1.0,2.0,86,0.00,,,0.00,meteohub,2013-06-01 12:18:00,
2013-06-01 05:23:00,47.8,43.9,30.48,East,92,2.0,2.0,86,0.00,,,0.00,meteohub,2013-06-01 12:23:00,
2013-06-01 05:28:00,47.7,43.7,30.48,SE,138,1.0,4.0,86,0.00,,,0.00,meteohub,2013-06-01 12:28:00,
2013-06-01 05:33:00,47.5,43.5,30.48,ENE,63,1.0,4.0,86,0.00,,,0.00,meteohub,2013-06-01 12:33:00,
2013-06-01 05:39:00,47.5,43.5,30.49,East,100,0.0,4.0,86,0.00,,,0.00,meteohub,2013-06-01 12:39:00,
2013-06-01 05:44:00,47.5,43.5,30.49,ESE,105,0.0,3.0,86,0.00,,,0.00,meteohub,2013-06-01 12:44:00,
2013-06-01 05:49:00,47.5,43.5,30.48,ESE,105,0.0,3.0,86,0.00,,,0.00,meteohub,2013-06-01 12:49:00,
2013-06-01 05:54:00,47.5,43.5,30.48,ESE,105,0.0,1.0,86,0.00,,,0.00,meteohub,2013-06-01 12:54:00,
2013-06-01 05:59:00,47.7,43.7,30.48,ESE,105,0.0,1.0,86,0.00,,,0.00,meteohub,2013-06-01 12:59:00,
2013-06-01 06:04:00,48.0,44.1,30.48,WSW,256,0.0,1.0,86,0.00,,,0.00,meteohub,2013-06-01 13:04:00,
2013-06-01 06:09:00,48.6,44.6,30.48,NE,53,0.0,2.0,86,0.00,,,0.00,meteohub,2013-06-01 13:09:00,
2013-06-01 06:14:00,48.6,44.6,30.48,NNE,24,0.0,3.0,86,0.00,,,0.00,meteohub,2013-06-01 13:14:00,
2013-06-01 06:19:00,48.4,44.4,30.48,ESE,105,1.0,3.0,86,0.00,,,0.00,meteohub,2013-06-01 13:19:00,
2013-06-01 06:24:00,48.4,44.4,30.48,SE,142,2.0,3.0,86,0.00,,,0.00,meteohub,2013-06-01 13:24:00,
2013-06-01 06:29:00,48.7,44.8,30.48,NNW,331,2.0,2.0,86,0.00,,,0.00,meteohub,2013-06-01 13:29:00,
2013-06-01 06:34:00,49.3,45.3,30.48,WSW,242,0.0,5.0,86,0.00,,,0.00,meteohub,2013-06-01 13:34:00,
2013-06-01 06:39:00,50.2,46.2,30.48,SSW,203,2.0,7.0,86,0.00,,,0.00,meteohub,2013-06-01 13:39:00,
2013-06-01 06:44:00,50.2,45.9,30.48,SSW,200,0.0,7.0,85,0.00,,,0.00,meteohub,2013-06-01 13:44:00,
2013-06-01 06:50:00,50.7,46.4,30.48,East,90,1.0,5.0,85,0.00,,,0.00,meteohub,2013-06-01 13:50:00,
2013-06-01 06:55:00,50.4,45.7,30.49,SE,136,1.0,6.0,84,0.00,,,0.00,meteohub,2013-06-01 13:55:00,
2013-06-01 07:00:00,50.2,45.9,30.49,SE,132,0.0,6.0,85,0.00,,,0.00,meteohub,2013-06-01 14:00:00,
2013-06-01 07:05:00,50.2,45.5,30.49,ESE,107,1.0,6.0,84,0.00,,,0.00,meteohub,2013-06-01 14:05:00,
2013-06-01 07:10:00,50.0,45.3,30.49,SE,126,0.0,3.0,84,0.00,,,0.00,meteohub,2013-06-01 14:10:00,
2013-06-01 07:15:00,50.2,45.9,30.49,East,94,1.0,2.0,85,0.00,,,0.00,meteohub,2013-06-01 14:15:00,
2013-06-01 07:20:00,50.4,46.0,30.49,NNE,32,3.0,3.0,85,0.00,,,0.00,meteohub,2013-06-01 14:20:00,
2013-06-01 07:25:00,51.1,46.8,30.48,NNW,329,0.0,5.0,85,0.00,,,0.00,meteohub,2013-06-01 14:25:00,
2013-06-01 07:30:00,51.6,46.9,30.48,SE,146,0.0,5.0,84,0.00,,,0.00,meteohub,2013-06-01 14:30:00,
2013-06-01 07:35:00,52.0,46.6,30.48,SE,133,0.0,3.0,82,0.00,,,0.00,meteohub,2013-06-01 14:35:00,
2013-06-01 07:40:00,52.0,46.6,30.48,NNE,17,0.0,1.0,82,0.00,,,0.00,meteohub,2013-06-01 14:40:00,
2013-06-01 07:45:00,52.2,46.8,30.48,East,86,0.0,2.0,82,0.00,,,0.00,meteohub,2013-06-01 14:45:00,
2013-06-01 07:50:00,52.7,47.1,30.48,NNW,339,1.0,2.0,81,0.00,,,0.00,meteohub,2013-06-01 14:50:00,
2013-06-01 07:55:00,53.1,47.1,30.48,NE,34,1.0,2.0,80,0.00,,,0.00,meteohub,2013-06-01 14:55:00,
2013-06-01 08:01:00,53.6,47.7,30.48,ESE,108,0.0,2.0,80,0.00,,,0.00,meteohub,2013-06-01 15:01:00,
2013-06-01 08:06:00,53.8,47.5,30.48,NNE,23,0.0,3.0,79,0.00,,,0.00,meteohub,2013-06-01 15:06:00,
2013-06-01 08:11:00,54.1,47.8,30.47,SE,141,1.0,3.0,79,0.00,,,0.00,meteohub,2013-06-01 15:11:00,
2013-06-01 08:16:00,54.7,48.0,30.47,ESE,122,0.0,3.0,78,0.00,,,0.00,meteohub,2013-06-01 15:16:00,
2013-06-01 08:21:00,55.2,48.2,30.47,NW,310,1.0,2.0,77,0.00,,,0.00,meteohub,2013-06-01 15:21:00,
2013-06-01 08:26:00,55.6,48.6,30.47,NE,46,2.0,3.0,77,0.00,,,0.00,meteohub,2013-06-01 15:26:00,
2013-06-01 08:31:00,56.1,48.4,30.47,NNE,26,2.0,3.0,75,0.00,,,0.00,meteohub,2013-06-01 15:31:00,
2013-06-01 08:36:00,56.5,48.4,30.47,ESE,105,0.0,3.0,74,0.00,,,0.00,meteohub,2013-06-01 15:36:00,
2013-06-01 08:41:00,56.8,48.6,30.46,NNE,32,3.0,4.0,74,0.00,,,0.00,meteohub,2013-06-01 15:41:00,
2013-06-01 08:46:00,56.3,48.2,30.46,NW,315,1.0,4.0,74,0.00,,,0.00,meteohub,2013-06-01 15:46:00,
2013-06-01 08:51:00,56.3,48.6,30.46,NW,306,1.0,4.0,75,0.00,,,0.00,meteohub,2013-06-01 15:51:00,
2013-06-01 08:56:00,56.7,48.7,30.46,NE,44,3.0,4.0,75,0.00,,,0.00,meteohub,2013-06-01 15:56:00,
2013-06-01 09:01:00,57.4,49.5,30.46,ENE,61,0.0,3.0,75,0.00,,,0.00,meteohub,2013-06-01 16:01:00,
2013-06-01 09:07:00,57.7,49.1,30.46,East,97,1.0,4.0,73,0.00,,,0.00,meteohub,2013-06-01 16:07:00,
2013-06-01 09:12:00,57.9,50.0,30.46,ENE,61,1.0,4.0,75,0.00,,,0.00,meteohub,2013-06-01 16:12:00,
2013-06-01 09:17:00,57.9,49.3,30.45,West,279,1.0,5.0,73,0.00,,,0.00,meteohub,2013-06-01 16:17:00,
2013-06-01 09:22:00,58.3,50.0,30.45,NNE,24,4.0,6.0,74,0.00,,,0.00,meteohub,2013-06-01 16:22:00,
2013-06-01 09:27:00,58.6,49.6,30.45,NW,323,3.0,6.0,72,0.00,,,0.00,meteohub,2013-06-01 16:27:00,
2013-06-01 09:32:00,59.0,49.3,30.45,North,0,2.0,5.0,70,0.00,,,0.00,meteohub,2013-06-01 16:32:00,
2013-06-01 09:37:00,59.5,50.2,30.45,NNW,344,2.0,5.0,71,0.00,,,0.00,meteohub,2013-06-01 16:37:00,
2013-06-01 09:42:00,60.1,50.2,30.45,East,82,0.0,5.0,70,0.00,,,0.00,meteohub,2013-06-01 16:42:00,
2013-06-01 09:47:00,61.0,50.0,30.45,ESE,122,0.0,4.0,67,0.00,,,0.00,meteohub,2013-06-01 16:47:00,
2013-06-01 09:52:00,61.5,49.3,30.44,WNW,298,2.0,3.0,64,0.00,,,0.00,meteohub,2013-06-01 16:52:00,
2013-06-01 09:57:00,62.4,49.6,30.44,NE,35,1.0,3.0,63,0.00,,,0.00,meteohub,2013-06-01 16:57:00,
2013-06-01 10:02:00,63.3,50.0,30.44,NNE,19,1.0,5.0,62,0.00,,,0.00,meteohub,2013-06-01 17:02:00,
2013-06-01 10:08:00,64.2,51.4,30.44,NNE,32,2.0,5.0,63,0.00,,,0.00,meteohub,2013-06-01 17:08:00,
2013-06-01 10:13:00,64.2,49.6,30.43,NW,319,2.0,5.0,59,0.00,,,0.00,meteohub,2013-06-01 17:13:00,
2013-06-01 10:18:00,64.8,48.2,30.43,NW,309,4.0,7.0,55,0.00,,,0.00,meteohub,2013-06-01 17:18:00,
2013-06-01 10:23:00,64.6,48.0,30.43,NW,326,2.0,10.0,55,0.00,,,0.00,meteohub,2013-06-01 17:23:00,
2013-06-01 10:28:00,64.9,48.9,30.43,West,274,9.0,10.0,56,0.00,,,0.00,meteohub,2013-06-01 17:28:00,
2013-06-01 10:33:00,64.9,48.9,30.43,South,179,2.0,10.0,56,0.00,,,0.00,meteohub,2013-06-01 17:33:00,
2013-06-01 10:38:00,65.7,49.5,30.42,WSW,246,3.0,10.0,56,0.00,,,0.00,meteohub,2013-06-01 17:38:00,
2013-06-01 10:43:00,65.1,49.1,30.42,West,269,3.0,10.0,56,0.00,,,0.00,meteohub,2013-06-01 17:43:00,
2013-06-01 10:48:00,64.6,48.0,30.42,SW,233,4.0,15.0,55,0.00,,,0.00,meteohub,2013-06-01 17:48:00,
2013-06-01 10:53:00,64.6,48.9,30.42,SW,230,4.0,15.0,57,0.00,,,0.00,meteohub,2013-06-01 17:53:00,
2013-06-01 10:58:00,64.6,48.6,30.42,SW,226,4.0,12.0,56,0.00,,,0.00,meteohub,2013-06-01 17:58:00,
2013-06-01 11:04:00,64.9,49.3,30.41,SSW,202,2.0,10.0,57,0.00,,,0.00,meteohub,2013-06-01 18:04:00,
2013-06-01 11:09:00,64.9,47.8,30.41,WNW,298,3.0,13.0,54,0.00,,,0.00,meteohub,2013-06-01 18:09:00,
2013-06-01 11:14:00,64.8,48.2,30.41,WSW,256,5.0,13.0,55,0.00,,,0.00,meteohub,2013-06-01 18:14:00,
2013-06-01 11:19:00,64.8,48.2,30.41,WSW,246,5.0,14.0,55,0.00,,,0.00,meteohub,2013-06-01 18:19:00,
2013-06-01 11:24:00,64.2,49.1,30.41,WSW,253,7.0,14.0,58,0.00,,,0.00,meteohub,2013-06-01 18:24:00,
2013-06-01 11:29:00,64.0,50.4,30.41,West,276,2.0,13.0,61,0.00,,,0.00,meteohub,2013-06-01 18:29:00,
2013-06-01 11:34:00,63.7,50.0,30.41,West,276,5.0,13.0,61,0.00,,,0.00,meteohub,2013-06-01 18:34:00,
2013-06-01 11:39:00,63.7,50.0,30.41,West,279,3.0,13.0,61,0.00,,,0.00,meteohub,2013-06-01 18:39:00,
2013-06-01 11:44:00,64.0,49.8,30.40,WNW,288,6.0,11.0,60,0.00,,,0.00,meteohub,2013-06-01 18:44:00,
2013-06-01 11:49:00,64.2,49.6,30.40,West,276,3.0,12.0,59,0.00,,,0.00,meteohub,2013-06-01 18:49:00,
2013-06-01 11:54:00,64.6,49.5,30.40,SW,223,11.0,12.0,58,0.00,,,0.00,meteohub,2013-06-01 18:54:00,
2013-06-01 11:59:00,65.1,49.5,30.40,SW,225,5.0,12.0,57,0.00,,,0.00,meteohub,2013-06-01 18:59:00,
2013-06-01 12:05:00,65.5,49.3,30.39,WSW,248,4.0,12.0,56,0.00,,,0.00,meteohub,2013-06-01 19:05:00,
2013-06-01 12:10:00,65.8,49.6,30.38,SW,230,4.0,12.0,56,0.00,,,0.00,meteohub,2013-06-01 19:10:00,
2013-06-01 12:15:00,66.6,48.9,30.38,West,274,5.0,11.0,53,0.00,,,0.00,meteohub,2013-06-01 19:15:00,
2013-06-01 12:20:00,67.5,49.3,30.38,West,269,4.0,11.0,52,0.00,,,0.00,meteohub,2013-06-01 19:20:00,
2013-06-01 12:25:00,68.0,49.6,30.38,West,267,8.0,10.0,52,0.00,,,0.00,meteohub,2013-06-01 19:25:00,
2013-06-01 12:30:00,68.0,49.6,30.38,SW,225,3.0,10.0,52,0.00,,,0.00,meteohub,2013-06-01 19:30:00,
2013-06-01 12:35:00,68.4,48.4,30.38,WSW,248,7.0,12.0,49,0.00,,,0.00,meteohub,2013-06-01 19:35:00,
2013-06-01 12:40:00,68.7,49.3,30.38,SW,223,7.0,12.0,50,0.00,,,0.00,meteohub,2013-06-01 19:40:00,
2013-06-01 12:45:00,68.7,48.7,30.38,SW,223,7.0,12.0,49,0.00,,,0.00,meteohub,2013-06-01 19:45:00,
2013-06-01 12:50:00,68.7,48.7,30.38,West,275,8.0,11.0,49,0.00,,,0.00,meteohub,2013-06-01 19:50:00,
2013-06-01 12:55:00,68.9,48.4,30.37,West,277,5.0,11.0,48,0.00,,,0.00,meteohub,2013-06-01 19:55:00,
2013-06-01 13:00:00,69.4,49.5,30.37,WSW,244,5.0,11.0,49,0.00,,,0.00,meteohub,2013-06-01 20:00:00,
2013-06-01 13:05:00,69.3,48.7,30.37,SW,227,7.0,11.0,48,0.00,,,0.00,meteohub,2013-06-01 20:05:00,
2013-06-01 13:11:00,69.4,49.5,30.37,West,267,4.0,13.0,49,0.00,,,0.00,meteohub,2013-06-01 20:11:00,
2013-06-01 13:16:00,70.3,50.4,30.37,SW,219,5.0,13.0,49,0.00,,,0.00,meteohub,2013-06-01 20:16:00,
2013-06-01 13:21:00,71.2,49.5,30.36,SW,221,6.0,12.0,46,0.00,,,0.00,meteohub,2013-06-01 20:21:00,
2013-06-01 13:26:00,71.4,49.6,30.36,WNW,282,5.0,12.0,46,0.00,,,0.00,meteohub,2013-06-01 20:26:00,
2013-06-01 13:31:00,71.4,48.9,30.36,WSW,250,6.0,13.0,45,0.00,,,0.00,meteohub,2013-06-01 20:31:00,
2013-06-01 13:36:00,72.0,50.0,30.35,WNW,288,8.0,13.0,46,0.00,,,0.00,meteohub,2013-06-01 20:36:00,
2013-06-01 13:41:00,72.0,48.9,30.35,West,274,11.0,13.0,44,0.00,,,0.00,meteohub,2013-06-01 20:41:00,
2013-06-01 13:46:00,72.7,49.5,30.35,NW,306,10.0,15.0,44,0.00,,,0.00,meteohub,2013-06-01 20:46:00,
2013-06-01 13:51:00,72.7,48.9,30.34,West,263,6.0,15.0,43,0.00,,,0.00,meteohub,2013-06-01 20:51:00,
2013-06-01 13:56:00,72.9,49.6,30.34,WSW,238,6.0,15.0,44,0.00,,,0.00,meteohub,2013-06-01 20:56:00,
2013-06-01 14:01:00,73.0,49.8,30.34,West,273,8.0,13.0,44,0.00,,,0.00,meteohub,2013-06-01 21:01:00,
2013-06-01 14:06:00,73.4,50.7,30.33,SW,226,6.0,13.0,45,0.00,,,0.00,meteohub,2013-06-01 21:06:00,
2013-06-01 14:12:00,73.6,49.6,30.34,NW,326,6.0,13.0,43,0.00,,,0.00,meteohub,2013-06-01 21:12:00,
2013-06-01 14:17:00,73.8,49.8,30.33,NW,304,3.0,13.0,43,0.00,,,0.00,meteohub,2013-06-01 21:17:00,
2013-06-01 14:22:00,73.8,49.3,30.33,SW,236,5.0,15.0,42,0.00,,,0.00,meteohub,2013-06-01 21:22:00,
2013-06-01 14:27:00,73.9,49.5,30.33,WNW,292,7.0,15.0,42,0.00,,,0.00,meteohub,2013-06-01 21:27:00,
2013-06-01 14:32:00,73.9,49.5,30.33,WNW,286,10.0,15.0,42,0.00,,,0.00,meteohub,2013-06-01 21:32:00,
2013-06-01 14:37:00,73.9,50.0,30.32,West,272,5.0,15.0,43,0.00,,,0.00,meteohub,2013-06-01 21:37:00,
2013-06-01 14:42:00,74.1,50.2,30.32,WSW,256,4.0,15.0,43,0.00,,,0.00,meteohub,2013-06-01 21:42:00,
2013-06-01 14:47:00,74.5,50.5,30.32,WSW,245,9.0,15.0,43,0.00,,,0.00,meteohub,2013-06-01 21:47:00,
2013-06-01 14:52:00,74.8,50.2,30.32,West,273,12.0,14.0,42,0.00,,,0.00,meteohub,2013-06-01 21:52:00,
2013-06-01 14:57:00,74.8,50.9,30.32,SW,230,8.0,15.0,43,0.00,,,0.00,meteohub,2013-06-01 21:57:00,
2013-06-01 15:02:00,74.8,50.2,30.32,WSW,246,7.0,15.0,42,0.00,,,0.00,meteohub,2013-06-01 22:02:00,
2013-06-01 15:07:00,75.2,50.5,30.32,WNW,283,4.0,15.0,42,0.00,,,0.00,meteohub,2013-06-01 22:07:00,
2013-06-01 15:12:00,75.2,49.8,30.31,SW,227,8.0,15.0,41,0.00,,,0.00,meteohub,2013-06-01 22:12:00,
2013-06-01 15:17:00,75.6,50.9,30.31,WSW,253,5.0,14.0,42,0.00,,,0.00,meteohub,2013-06-01 22:17:00,
2013-06-01 15:22:00,75.7,50.4,30.31,WSW,238,5.0,13.0,41,0.00,,,0.00,meteohub,2013-06-01 22:22:00,
2013-06-01 15:27:00,75.7,51.1,30.31,WSW,246,7.0,14.0,42,0.00,,,0.00,meteohub,2013-06-01 22:27:00,
2013-06-01 15:32:00,75.4,49.5,30.31,West,269,6.0,14.0,40,0.00,,,0.00,meteohub,2013-06-01 22:32:00,
2013-06-01 15:37:00,75.4,49.5,30.30,WSW,249,5.0,14.0,40,0.00,,,0.00,meteohub,2013-06-01 22:37:00,
2013-06-01 15:42:00,75.4,48.7,30.31,WSW,256,5.0,14.0,39,0.00,,,0.00,meteohub,2013-06-01 22:42:00,
2013-06-01 15:47:00,75.4,49.5,30.30,WSW,250,9.0,18.0,40,0.00,,,0.00,meteohub,2013-06-01 22:47:00,
2013-06-01 15:52:00,75.6,48.9,30.31,West,269,6.0,18.0,39,0.00,,,0.00,meteohub,2013-06-01 22:52:00,
2013-06-01 15:57:00,75.4,48.7,30.31,SW,233,3.0,14.0,39,0.00,,,0.00,meteohub,2013-06-01 22:57:00,
2013-06-01 16:02:00,75.6,48.9,30.31,SW,220,6.0,14.0,39,0.00,,,0.00,meteohub,2013-06-01 23:02:00,
2013-06-01 16:07:00,75.6,48.2,30.31,West,263,8.0,18.0,38,0.00,,,0.00,meteohub,2013-06-01 23:07:00,
2013-06-01 16:13:00,75.4,48.7,30.31,SW,226,5.0,18.0,39,0.00,,,0.00,meteohub,2013-06-01 23:13:00,
2013-06-01 16:18:00,75.6,48.9,30.30,ESE,115,5.0,18.0,39,0.00,,,0.00,meteohub,2013-06-01 23:18:00,
2013-06-01 16:23:00,75.6,49.5,30.30,SSW,199,5.0,14.0,40,0.00,,,0.00,meteohub,2013-06-01 23:23:00,
2013-06-01 16:28:00,75.7,49.6,30.30,WSW,237,12.0,14.0,40,0.00,,,0.00,meteohub,2013-06-01 23:28:00,
2013-06-01 16:33:00,75.7,49.6,30.30,WSW,248,12.0,14.0,40,0.00,,,0.00,meteohub,2013-06-01 23:33:00,
2013-06-01 16:38:00,75.6,49.5,30.30,WSW,250,4.0,14.0,40,0.00,,,0.00,meteohub,2013-06-01 23:38:00,
2013-06-01 16:43:00,75.6,48.9,30.30,WSW,237,4.0,14.0,39,0.00,,,0.00,meteohub,2013-06-01 23:43:00,
2013-06-01 16:48:00,75.4,49.5,30.30,SSW,211,8.0,14.0,40,0.00,,,0.00,meteohub,2013-06-01 23:48:00,
2013-06-01 16:53:00,75.0,49.6,30.29,SW,217,7.0,14.0,41,0.00,,,0.00,meteohub,2013-06-01 23:53:00,
2013-06-01 16:58:00,75.0,50.4,30.29,WSW,242,5.0,14.0,42,0.00,,,0.00,meteohub,2013-06-01 23:58:00,
2013-06-01 17:03:00,75.4,50.7,30.29,West,261,2.0,15.0,42,0.00,,,0.00,meteohub,2013-06-02 00:03:00,
2013-06-01 17:08:00,75.4,50.7,30.29,WSW,246,6.0,15.0,42,0.00,,,0.00,meteohub,2013-06-02 00:08:00,
2013-06-01 17:13:00,75.4,50.7,30.29,West,279,6.0,16.0,42,0.00,,,0.00,meteohub,2013-06-02 00:13:00,
2013-06-01 17:18:00,75.6,50.9,30.29,West,259,4.0,16.0,42,0.00,,,0.00,meteohub,2013-06-02 00:18:00,
2013-06-01 17:24:00,75.4,51.3,30.29,WNW,285,3.0,12.0,43,0.00,,,0.00,meteohub,2013-06-02 00:24:00,
2013-06-01 17:29:00,75.6,50.9,30.29,WNW,300,8.0,12.0,42,0.00,,,0.00,meteohub,2013-06-02 00:29:00,
2013-06-01 17:34:00,75.4,51.3,30.29,West,280,7.0,12.0,43,0.00,,,0.00,meteohub,2013-06-02 00:34:00,
2013-06-01 17:39:00,75.0,51.6,30.29,SSW,211,4.0,15.0,44,0.00,,,0.00,meteohub,2013-06-02 00:39:00,
2013-06-01 17:44:00,74.8,51.4,30.28,WNW,287,8.0,15.0,44,0.00,,,0.00,meteohub,2013-06-02 00:44:00,
2013-06-01 17:49:00,75.2,51.8,30.28,SW,219,2.0,14.0,44,0.00,,,0.00,meteohub,2013-06-02 00:49:00,
2013-06-01 17:54:00,75.0,51.1,30.28,SW,222,9.0,14.0,43,0.00,,,0.00,meteohub,2013-06-02 00:54:00,
2013-06-01 17:59:00,74.8,51.4,30.27,WSW,244,6.0,14.0,44,0.00,,,0.00,meteohub,2013-06-02 00:59:00,
2013-06-01 18:04:00,74.7,52.0,30.27,West,271,5.0,12.0,45,0.00,,,0.00,meteohub,2013-06-02 01:04:00,
2013-06-01 18:09:00,74.8,52.2,30.27,WSW,248,7.0,13.0,45,0.00,,,0.00,meteohub,2013-06-02 01:09:00,
2013-06-01 18:14:00,74.7,52.0,30.27,WSW,238,4.0,13.0,45,0.00,,,0.00,meteohub,2013-06-02 01:14:00,
2013-06-01 18:19:00,74.8,52.2,30.27,SW,233,1.0,13.0,45,0.00,,,0.00,meteohub,2013-06-02 01:19:00,
2013-06-01 18:25:00,74.8,51.4,30.27,WSW,256,1.0,13.0,44,0.00,,,0.00,meteohub,2013-06-02 01:25:00,
2013-06-01 18:30:00,74.8,51.4,30.27,NW,313,6.0,13.0,44,0.00,,,0.00,meteohub,2013-06-02 01:30:00,
2013-06-01 18:35:00,74.5,51.8,30.27,SW,219,7.0,11.0,45,0.00,,,0.00,meteohub,2013-06-02 01:35:00,
2013-06-01 18:40:00,74.5,51.8,30.27,WSW,248,2.0,11.0,45,0.00,,,0.00,meteohub,2013-06-02 01:40:00,
2013-06-01 18:45:00,74.1,52.0,30.27,SSW,203,2.0,13.0,46,0.00,,,0.00,meteohub,2013-06-02 01:45:00,
2013-06-01 18:50:00,74.5,51.8,30.27,WSW,242,1.0,13.0,45,0.00,,,0.00,meteohub,2013-06-02 01:50:00,
2013-06-01 18:55:00,74.3,51.6,30.27,West,276,1.0,13.0,45,0.00,,,0.00,meteohub,2013-06-02 01:55:00,
2013-06-01 19:00:00,74.5,51.8,30.27,SSW,209,4.0,8.0,45,0.00,,,0.00,meteohub,2013-06-02 02:00:00,
2013-06-01 19:05:00,74.5,51.8,30.27,West,260,4.0,8.0,45,0.00,,,0.00,meteohub,2013-06-02 02:05:00,
2013-06-01 19:10:00,74.1,51.4,30.27,West,264,3.0,8.0,45,0.00,,,0.00,meteohub,2013-06-02 02:10:00,
2013-06-01 19:15:00,73.9,51.8,30.27,SSW,206,3.0,7.0,46,0.00,,,0.00,meteohub,2013-06-02 02:15:00,
2013-06-01 19:20:00,73.8,52.3,30.27,SW,214,2.0,7.0,47,0.00,,,0.00,meteohub,2013-06-02 02:20:00,
2013-06-01 19:25:00,73.4,52.0,30.27,SW,230,4.0,9.0,47,0.00,,,0.00,meteohub,2013-06-02 02:25:00,
2013-06-01 19:31:00,73.6,52.2,30.27,SW,230,6.0,9.0,47,0.00,,,0.00,meteohub,2013-06-02 02:31:00,
2013-06-01 19:36:00,73.0,51.6,30.27,SW,230,3.0,9.0,47,0.00,,,0.00,meteohub,2013-06-02 02:36:00,
2013-06-01 19:41:00,72.9,52.0,30.27,WSW,241,2.0,7.0,48,0.00,,,0.00,meteohub,2013-06-02 02:41:00,
2013-06-01 19:46:00,72.9,52.0,30.27,WSW,250,5.0,8.0,48,0.00,,,0.00,meteohub,2013-06-02 02:46:00,
2013-06-01 19:51:00,72.7,51.8,30.27,WSW,242,4.0,8.0,48,0.00,,,0.00,meteohub,2013-06-02 02:51:00,
2013-06-01 19:56:00,72.3,51.4,30.27,South,182,2.0,8.0,48,0.00,,,0.00,meteohub,2013-06-02 02:56:00,
2013-06-01 20:01:00,71.8,51.6,30.26,SW,234,1.0,9.0,49,0.00,,,0.00,meteohub,2013-06-02 03:01:00,
2013-06-01 20:06:00,71.2,51.6,30.27,WSW,246,7.0,9.0,50,0.00,,,0.00,meteohub,2013-06-02 03:06:00,
2013-06-01 20:11:00,71.1,51.4,30.26,SSW,202,3.0,9.0,50,0.00,,,0.00,meteohub,2013-06-02 03:11:00,
2013-06-01 20:16:00,70.9,51.3,30.27,SW,219,1.0,11.0,50,0.00,,,0.00,meteohub,2013-06-02 03:16:00,
2013-06-01 20:21:00,70.5,51.4,30.27,SW,221,2.0,11.0,51,0.00,,,0.00,meteohub,2013-06-02 03:21:00,
2013-06-01 20:26:00,70.0,51.6,30.27,SSE,159,3.0,11.0,52,0.00,,,0.00,meteohub,2013-06-02 03:26:00,
2013-06-01 20:32:00,69.4,51.6,30.27,SW,230,3.0,7.0,53,0.00,,,0.00,meteohub,2013-06-02 03:32:00,
2013-06-01 20:37:00,69.1,51.3,30.27,SW,219,3.0,8.0,53,0.00,,,0.00,meteohub,2013-06-02 03:37:00,
2013-06-01 20:42:00,68.7,50.9,30.27,SW,221,3.0,9.0,53,0.00,,,0.00,meteohub,2013-06-02 03:42:00,
2013-06-01 20:47:00,68.5,51.3,30.26,WSW,254,4.0,9.0,54,0.00,,,0.00,meteohub,2013-06-02 03:47:00,
2013-06-01 20:52:00,68.4,51.1,30.27,South,173,4.0,9.0,54,0.00,,,0.00,meteohub,2013-06-02 03:52:00,
2013-06-01 20:57:00,68.2,50.9,30.27,SW,219,4.0,8.0,54,0.00,,,0.00,meteohub,2013-06-02 03:57:00,
2013-06-01 21:01:00,68.0,51.3,30.27,WSW,242,2.0,8.0,55,0.00,,,0.00,meteohub,2013-06-02 04:01:00,
2013-06-01 21:02:00,67.8,51.1,30.27,SW,226,5.0,8.0,55,0.00,,,0.00,meteohub,2013-06-02 04:02:00,
2013-06-01 21:04:00,67.8,51.1,30.27,WSW,238,1.0,8.0,55,0.00,,,0.00,meteohub,2013-06-02 04:04:00,
2013-06-01 21:09:00,67.6,50.9,30.27,SW,225,1.0,8.0,55,0.00,,,0.00,meteohub,2013-06-02 04:09:00,
2013-06-01 21:10:00,67.6,51.4,30.27,WSW,240,1.0,8.0,56,0.00,,,0.00,meteohub,2013-06-02 04:10:00,
2013-06-01 21:15:00,67.3,51.1,30.27,SW,220,4.0,7.0,56,0.00,,,0.00,meteohub,2013-06-02 04:15:00,
2013-06-01 21:20:00,67.1,50.9,30.27,SSW,211,0.0,7.0,56,0.00,,,0.00,meteohub,2013-06-02 04:20:00,
2013-06-01 21:25:00,66.7,51.1,30.27,SSW,202,1.0,7.0,57,0.00,,,0.00,meteohub,2013-06-02 04:25:00,
2013-06-01 21:30:00,66.6,50.9,30.27,SSE,159,0.0,4.0,57,0.00,,,0.00,meteohub,2013-06-02 04:30:00,
2013-06-01 21:36:00,66.4,51.1,30.27,SSE,153,0.0,3.0,58,0.00,,,0.00,meteohub,2013-06-02 04:36:00,
2013-06-01 21:41:00,66.0,51.3,30.27,SSW,213,2.0,2.0,59,0.00,,,0.00,meteohub,2013-06-02 04:41:00,
2013-06-01 21:46:00,66.0,50.9,30.27,SE,132,1.0,5.0,58,0.00,,,0.00,meteohub,2013-06-02 04:46:00,
2013-06-01 21:51:00,66.0,50.9,30.27,South,172,0.0,5.0,58,0.00,,,0.00,meteohub,2013-06-02 04:51:00,
2013-06-01 21:56:00,65.8,51.1,30.27,SSW,196,0.0,5.0,59,0.00,,,0.00,meteohub,2013-06-02 04:56:00,
2013-06-01 22:01:00,65.5,50.7,30.27,SSW,202,0.0,3.0,59,0.00,,,0.00,meteohub,2013-06-02 05:01:00,
2013-06-01 22:06:00,65.1,51.3,30.27,SW,223,0.0,2.0,61,0.00,,,0.00,meteohub,2013-06-02 05:06:00,
2013-06-01 22:11:00,64.8,51.1,30.27,SW,225,1.0,2.0,61,0.00,,,0.00,meteohub,2013-06-02 05:11:00,
2013-06-01 22:16:00,64.6,51.3,30.27,SSW,200,0.0,2.0,62,0.00,,,0.00,meteohub,2013-06-02 05:16:00,
2013-06-01 22:21:00,64.0,51.3,30.27,SSE,167,3.0,3.0,63,0.00,,,0.00,meteohub,2013-06-02 05:21:00,
2013-06-01 22:26:00,63.9,51.4,30.27,SSE,167,2.0,3.0,64,0.00,,,0.00,meteohub,2013-06-02 05:26:00,
2013-06-01 22:31:00,63.3,50.9,30.27,SSE,156,2.0,3.0,64,0.00,,,0.00,meteohub,2013-06-02 05:31:00,
2013-06-01 22:37:00,63.3,51.4,30.27,South,175,2.0,3.0,65,0.00,,,0.00,meteohub,2013-06-02 05:37:00,
2013-06-01 22:42:00,63.1,51.3,30.27,SSE,156,2.0,4.0,65,0.00,,,0.00,meteohub,2013-06-02 05:42:00,
2013-06-01 22:47:00,62.8,51.3,30.27,SW,226,1.0,4.0,66,0.00,,,0.00,meteohub,2013-06-02 05:47:00,
2013-06-01 22:52:00,62.4,51.3,30.26,South,187,0.0,3.0,67,0.00,,,0.00,meteohub,2013-06-02 05:52:00,
2013-06-01 22:57:00,62.1,51.4,30.26,SW,225,1.0,3.0,68,0.00,,,0.00,meteohub,2013-06-02 05:57:00,
2013-06-01 23:02:00,62.1,51.8,30.27,WSW,246,2.0,3.0,69,0.00,,,0.00,meteohub,2013-06-02 06:02:00,
2013-06-01 23:07:00,62.1,51.8,30.26,SW,217,2.0,3.0,69,0.00,,,0.00,meteohub,2013-06-02 06:07:00,
2013-06-01 23:12:00,62.1,51.8,30.26,SW,225,1.0,3.0,69,0.00,,,0.00,meteohub,2013-06-02 06:12:00,
2013-06-01 23:17:00,61.9,51.6,30.26,SW,217,0.0,4.0,69,0.00,,,0.00,meteohub,2013-06-02 06:17:00,
2013-06-01 23:22:00,61.5,51.6,30.26,WSW,243,0.0,4.0,70,0.00,,,0.00,meteohub,2013-06-02 06:22:00,
2013-06-01 23:27:00,61.3,51.8,30.26,SW,226,3.0,4.0,71,0.00,,,0.00,meteohub,2013-06-02 06:27:00,
2013-06-01 23:32:00,61.0,52.0,30.26,SW,234,1.0,2.0,72,0.00,,,0.00,meteohub,2013-06-02 06:32:00,
2013-06-01 23:38:00,60.6,52.0,30.26,SW,214,1.0,3.0,73,0.00,,,0.00,meteohub,2013-06-02 06:38:00,
2013-06-01 23:43:00,60.4,51.8,30.26,WSW,240,3.0,3.0,73,0.00,,,0.00,meteohub,2013-06-02 06:43:00,
2013-06-01 23:48:00,60.3,51.6,30.26,WSW,250,1.0,3.0,73,0.00,,,0.00,meteohub,2013-06-02 06:48:00,
2013-06-01 23:53:00,60.3,52.0,30.26,SW,223,2.0,4.0,74,0.00,,,0.00,meteohub,2013-06-02 06:53:00,
2013-06-01 23:58:00,60.3,52.0,30.26,WSW,250,1.0,6.0,74,0.00,,,0.00,meteohub,2013-06-02 06:58:00,